Hope, Kentucky
Current Conditions -  °F | °C
As of 2:55 PM on Sunday 21 Dec 2014 (Local Time) from KIOB Reporting Station
Clear Clear  
Wind Chill: 38°   Ceiling: Unl
Heat Index: 41°   Visibility: 10mi
Dew Point: 30°   Wind: 5mph
Humidity: 65%   Direction: 130°SE
Pressure: 30.19"   Gusts: NA
Location:  38.02°N, 83.77°W
Report Text: KIOB 211955Z AUTO 13004KT 10SM CLR 05/M01 A3019 RMK AO2
Loading
Personal Weather Stations






























Interactive Weather Map New forecast layout! Learn more

10-Day Weather Forecast

Advertisements
Track Severe Weather on mobile